createdAt,value
2018-10-05T00:01:30.588Z,101235.53
2018-10-05T00:03:58.673Z,101244.59
2018-10-05T00:06:26.764Z,101247.28
2018-10-05T00:08:54.869Z,101240.34
2018-10-05T00:11:23.049Z,101240.55
2018-10-05T00:13:51.165Z,101242.59
2018-10-05T00:16:19.281Z,101246.69
2018-10-05T00:18:47.392Z,101239.75
2018-10-05T00:21:15.557Z,101239.59
2018-10-05T00:23:43.695Z,101237.19
2018-10-05T00:26:11.799Z,101230.95
2018-10-05T00:28:40.000Z,101231.52
2018-10-05T00:31:08.057Z,101231.05
2018-10-05T00:33:36.157Z,101234.95
2018-10-05T00:36:04.265Z,101234.63
2018-10-05T00:38:32.390Z,101230.39
2018-10-05T00:41:01.384Z,101235.34
2018-10-05T00:43:30.579Z,101230.54
2018-10-05T00:45:58.689Z,101226.30
2018-10-05T00:48:26.792Z,101222.16
2018-10-05T00:50:54.897Z,101224.56
2018-10-05T00:53:23.033Z,101220.44
2018-10-05T00:55:51.295Z,101215.27
2018-10-05T00:58:19.397Z,101213.73
2018-10-05T01:00:47.517Z,101210.27
2018-10-05T01:03:15.702Z,101207.36
2018-10-05T01:05:43.893Z,101210.93
2018-10-05T01:08:16.696Z,101205.56
2018-10-05T01:10:44.796Z,101202.28
2018-10-05T01:13:12.980Z,101196.20
2018-10-05T01:15:41.075Z,101197.31
2018-10-05T01:18:09.177Z,101195.97
2018-10-05T01:20:37.284Z,101197.70
2018-10-05T01:23:05.415Z,101193.70
2018-10-05T01:25:33.577Z,101190.88
2018-10-05T01:28:01.708Z,101185.25
2018-10-05T01:30:29.788Z,101185.25
2018-10-05T01:32:57.878Z,101175.69
2018-10-05T01:35:25.968Z,101169.60
2018-10-05T01:37:54.088Z,101168.62
2018-10-05T01:40:22.208Z,101170.20
2018-10-05T01:42:50.333Z,101166.28
2018-10-05T01:45:18.424Z,101167.88
2018-10-05T01:47:46.557Z,101166.20
2018-10-05T01:50:14.655Z,101160.89
2018-10-05T01:52:42.749Z,101160.71
2018-10-05T01:55:10.976Z,101162.76
2018-10-05T01:57:39.111Z,101158.33
2018-10-05T02:00:07.211Z,101162.32
2018-10-05T02:02:35.408Z,101157.92
2018-10-05T02:05:03.453Z,101158.34
2018-10-05T02:07:31.557Z,101151.18
2018-10-05T02:09:59.641Z,101155.17
2018-10-05T02:12:27.798Z,101154.88
2018-10-05T02:14:55.972Z,101154.50
2018-10-05T02:17:24.072Z,101155.27
2018-10-05T02:19:52.177Z,101157.40
2018-10-05T02:22:20.256Z,101155.25
2018-10-05T02:24:48.359Z,101151.93
2018-10-05T02:27:16.498Z,101142.58
2018-10-05T02:29:44.612Z,101138.03
2018-10-05T02:32:12.775Z,101142.05
2018-10-05T02:34:40.884Z,101138.87
2018-10-05T02:37:08.981Z,101123.20
2018-10-05T02:39:37.136Z,101133.56
2018-10-05T02:42:05.218Z,101137.44
2018-10-05T02:44:33.300Z,101135.59
2018-10-05T02:47:01.384Z,101135.13
2018-10-05T02:49:29.479Z,101133.08
2018-10-05T02:51:57.548Z,101137.66
2018-10-05T02:54:25.662Z,101138.27
2018-10-05T02:56:54.059Z,101129.86
2018-10-05T02:59:22.157Z,101135.11
2018-10-05T03:02:01.629Z,101135.54
2018-10-05T03:04:29.752Z,101130.27
2018-10-05T03:06:57.854Z,101126.33
2018-10-05T03:09:25.958Z,101128.10
2018-10-05T03:11:54.059Z,101123.59
2018-10-05T03:14:22.544Z,101128.11
2018-10-05T03:16:50.674Z,101119.22
2018-10-05T03:19:18.863Z,101119.87
2018-10-05T03:21:46.955Z,101116.73
2018-10-05T03:24:15.065Z,101117.94
2018-10-05T03:26:43.148Z,101107.50
2018-10-05T03:29:11.259Z,101103.46
2018-10-05T03:31:39.407Z,101108.40
2018-10-05T03:34:07.568Z,101104.67
2018-10-05T03:36:35.655Z,101105.31
2018-10-05T03:39:05.145Z,101096.12
2018-10-05T03:41:33.228Z,101096.42
2018-10-05T03:44:01.330Z,101098.36
2018-10-05T03:46:29.620Z,101088.91
2018-10-05T03:48:57.732Z,101099.01
2018-10-05T03:51:25.809Z,101095.95
2018-10-05T03:53:53.924Z,101086.80
2018-10-05T03:56:22.016Z,101093.03
2018-10-05T03:58:50.127Z,101095.53
2018-10-05T04:01:18.192Z,101091.74
2018-10-05T04:03:46.305Z,101091.74
2018-10-05T04:06:14.409Z,101083.58
2018-10-05T04:08:42.556Z,101086.33
2018-10-05T04:11:10.661Z,101084.45
2018-10-05T04:13:38.837Z,101084.78
2018-10-05T04:16:07.024Z,101087.84
2018-10-05T04:18:35.099Z,101088.17
2018-10-05T04:21:03.205Z,101082.98
2018-10-05T04:23:31.296Z,101085.52
2018-10-05T04:25:59.552Z,101083.33
2018-10-05T04:28:27.652Z,101084.14
2018-10-05T04:30:55.715Z,101079.77
2018-10-05T04:33:23.789Z,101075.38
2018-10-05T04:35:51.859Z,101075.38
2018-10-05T04:38:19.955Z,101071.85
2018-10-05T04:40:48.040Z,101070.78
2018-10-05T04:43:16.250Z,101072.72
2018-10-05T04:45:50.654Z,101066.48
2018-10-05T04:48:18.763Z,101069.33
2018-10-05T04:50:46.841Z,101067.70
2018-10-05T04:53:14.944Z,101069.97
2018-10-05T04:55:43.051Z,101074.09
2018-10-05T04:58:11.165Z,101073.87
2018-10-05T05:00:39.395Z,101069.02
2018-10-05T05:03:08.930Z,101069.88
2018-10-05T05:05:37.031Z,101068.50
2018-10-05T05:08:05.159Z,101071.81
2018-10-05T05:10:33.274Z,101079.28
2018-10-05T05:13:01.411Z,101071.90
2018-10-05T05:15:29.500Z,101073.05
2018-10-05T05:17:57.633Z,101072.80
2018-10-05T05:20:25.736Z,101076.44
2018-10-05T05:22:53.821Z,101078.13
2018-10-05T05:25:21.930Z,101071.81
2018-10-05T05:27:50.065Z,101077.86
2018-10-05T05:30:18.164Z,101077.30
2018-10-05T05:32:46.248Z,101073.83
2018-10-05T05:35:14.357Z,101077.64
2018-10-05T05:37:42.438Z,101079.58
2018-10-05T05:40:10.558Z,101080.39
2018-10-05T05:42:38.780Z,101083.95
2018-10-05T05:45:06.910Z,101073.74
2018-10-05T05:47:34.997Z,101074.25
2018-10-05T05:50:03.129Z,101078.04
2018-10-05T05:52:31.233Z,101068.75
2018-10-05T05:54:59.396Z,101069.41
2018-10-05T05:57:28.198Z,101073.62
2018-10-05T05:59:56.420Z,101071.17
2018-10-05T06:02:24.590Z,101072.57
2018-10-05T06:04:52.757Z,101070.23
2018-10-05T06:07:20.882Z,101064.40
2018-10-05T06:09:49.005Z,101061.06
2018-10-05T06:12:17.171Z,101052.28
2018-10-05T06:14:45.268Z,101051.22
2018-10-05T06:17:13.445Z,101054.19
2018-10-05T06:19:41.551Z,101049.91
2018-10-05T06:22:09.834Z,101048.94
2018-10-05T06:24:37.773Z,101013.73
2018-10-05T06:27:06.212Z,101054.34
2018-10-05T06:29:34.516Z,101049.94
2018-10-05T06:32:02.594Z,101045.03
2018-10-05T06:34:30.670Z,101040.66
2018-10-05T06:36:58.787Z,101047.86
2018-10-05T06:39:26.939Z,101049.16
2018-10-05T06:41:55.088Z,101047.52
2018-10-05T06:44:23.205Z,101046.51
2018-10-05T06:46:51.317Z,101049.21
2018-10-05T06:49:19.413Z,101057.27
2018-10-05T06:51:47.561Z,101057.05
2018-10-05T06:54:15.674Z,101057.63
2018-10-05T06:56:43.777Z,101056.80
2018-10-05T06:59:11.904Z,101053.63
2018-10-05T07:01:40.128Z,101054.41
2018-10-05T07:04:08.270Z,101055.92
2018-10-05T07:06:36.381Z,101058.70
2018-10-05T07:09:06.029Z,101063.30
2018-10-05T07:11:34.343Z,101059.18
2018-10-05T07:14:02.377Z,101058.78
2018-10-05T07:16:30.626Z,101056.00
2018-10-05T07:18:58.714Z,101049.97
2018-10-05T07:21:26.878Z,101052.46
2018-10-05T07:23:54.888Z,101056.41
2018-10-05T07:26:23.011Z,101054.04
2018-10-05T07:28:51.118Z,101047.83
2018-10-05T07:31:19.318Z,101049.74
2018-10-05T07:33:47.414Z,101044.45
2018-10-05T07:36:15.517Z,101044.88
2018-10-05T07:38:43.608Z,101040.45
2018-10-05T07:41:11.733Z,101041.64
2018-10-05T07:43:39.851Z,101037.37
2018-10-05T07:46:08.040Z,101035.05
2018-10-05T07:48:36.121Z,101030.16
2018-10-05T07:51:04.361Z,101031.93
2018-10-05T07:53:32.435Z,101031.80
2018-10-05T07:56:00.505Z,101028.86
2018-10-05T07:58:28.650Z,101025.94
2018-10-05T08:00:56.740Z,101022.34
2018-10-05T08:03:24.832Z,101020.24
2018-10-05T08:05:52.929Z,101024.48
2018-10-05T08:08:21.089Z,101015.55
2018-10-05T08:10:49.910Z,101017.80
2018-10-05T08:13:18.080Z,101010.50
2018-10-05T08:15:46.191Z,101009.87
2018-10-05T08:18:14.301Z,101009.05
2018-10-05T08:20:42.484Z,101004.00
2018-10-05T08:23:10.601Z,101008.14
2018-10-05T08:25:38.679Z,101007.92
2018-10-05T08:28:06.776Z,101002.19
2018-10-05T08:30:34.864Z,101004.17
2018-10-05T08:33:03.061Z,101002.23
2018-10-05T08:35:31.171Z,100997.80
2018-10-05T08:37:59.297Z,100997.16
2018-10-05T08:40:27.405Z,100998.66
2018-10-05T08:42:55.518Z,100994.34
2018-10-05T08:45:23.709Z,100990.85
2018-10-05T08:47:51.819Z,100986.98
2018-10-05T08:50:19.961Z,100989.80
2018-10-05T08:52:48.068Z,100987.14
2018-10-05T08:55:16.222Z,100989.41
2018-10-05T08:57:44.397Z,100997.36
2018-10-05T09:00:12.557Z,100992.70
2018-10-05T09:02:40.609Z,100985.47
2018-10-05T09:05:08.830Z,100983.53
2018-10-05T09:07:36.937Z,100978.78
2018-10-05T09:10:05.194Z,100977.92
2018-10-05T09:12:33.333Z,100974.45
2018-10-05T09:15:01.479Z,100965.30
2018-10-05T09:17:29.610Z,100964.98
2018-10-05T09:19:57.771Z,100963.64
2018-10-05T09:22:25.965Z,100952.69
2018-10-05T09:24:54.474Z,100962.83
2018-10-05T09:27:22.614Z,100958.97
2018-10-05T09:29:50.789Z,100957.58
2018-10-05T09:32:18.979Z,100949.84
2018-10-05T09:34:47.096Z,100948.27
2018-10-05T09:37:15.207Z,100945.36
2018-10-05T09:39:43.298Z,100940.31
2018-10-05T09:42:11.442Z,100934.06
2018-10-05T09:44:39.650Z,100935.09
2018-10-05T09:47:07.775Z,100924.72
2018-10-05T09:49:35.886Z,100928.95
2018-10-05T09:52:04.053Z,100918.98
2018-10-05T09:54:32.283Z,100917.88
2018-10-05T09:57:00.473Z,100913.34
2018-10-05T09:59:28.912Z,100907.04
2018-10-05T10:02:02.371Z,100870.55
2018-10-05T10:04:30.563Z,100894.06
2018-10-05T10:06:59.773Z,100890.14
2018-10-05T10:09:27.941Z,100891.78
2018-10-05T10:11:56.052Z,100892.41
2018-10-05T10:14:24.188Z,100881.31
2018-10-05T10:16:52.331Z,100881.37
2018-10-05T10:19:20.473Z,100880.44
2018-10-05T10:21:48.711Z,100877.27
2018-10-05T10:24:16.855Z,100871.72
2018-10-05T10:26:45.090Z,100872.01
2018-10-05T10:29:13.396Z,100872.47
2018-10-05T10:31:41.530Z,100860.33
2018-10-05T10:34:09.657Z,100860.95
2018-10-05T10:36:37.845Z,100851.83
2018-10-05T10:39:07.520Z,100848.09
2018-10-05T10:41:35.679Z,100848.08
2018-10-05T10:44:03.912Z,100846.73
2018-10-05T10:46:32.413Z,100843.95
2018-10-05T10:49:00.626Z,100837.37
2018-10-05T10:51:28.719Z,100833.39
2018-10-05T10:53:56.894Z,100836.63
2018-10-05T10:56:25.284Z,100834.83
2018-10-05T10:58:53.383Z,100828.06
2018-10-05T11:01:21.568Z,100824.45
2018-10-05T11:03:50.126Z,100825.27
2018-10-05T11:06:18.269Z,100823.66
2018-10-05T11:08:46.401Z,100815.84
2018-10-05T11:11:14.560Z,100811.85
2018-10-05T11:13:42.727Z,100810.63
2018-10-05T11:16:10.866Z,100806.05
2018-10-05T11:18:39.061Z,100798.47
2018-10-05T11:21:07.310Z,100790.08
2018-10-05T11:23:35.513Z,100790.07
2018-10-05T11:26:03.617Z,100780.88
2018-10-05T11:28:31.738Z,100773.23
2018-10-05T11:30:59.860Z,100772.05
2018-10-05T11:33:27.987Z,100764.25
2018-10-05T11:35:56.093Z,100764.23
2018-10-05T11:38:24.216Z,100759.02
2018-10-05T11:40:52.429Z,100750.60
2018-10-05T11:43:20.698Z,100748.02
2018-10-05T11:45:48.796Z,100750.38
2018-10-05T11:48:16.911Z,100741.16
2018-10-05T11:50:45.039Z,100741.16
2018-10-05T11:53:13.157Z,100738.53
2018-10-05T11:55:41.241Z,100731.93
2018-10-05T11:58:09.323Z,100730.30
2018-10-05T12:00:37.473Z,100723.45
2018-10-05T12:03:05.701Z,100723.45
2018-10-05T12:05:33.835Z,100713.81
2018-10-05T12:08:01.955Z,100711.42
2018-10-05T12:10:30.089Z,100709.20
2018-10-05T12:12:58.189Z,100699.58
2018-10-05T12:15:26.324Z,100699.16
2018-10-05T12:17:54.431Z,100688.89
2018-10-05T12:20:22.559Z,100685.64
2018-10-05T12:22:50.683Z,100679.34
2018-10-05T12:25:18.856Z,100678.09
2018-10-05T12:27:46.993Z,100679.69
2018-10-05T12:30:15.235Z,100676.27
2018-10-05T12:32:43.392Z,100676.02
2018-10-05T12:35:11.527Z,100676.02
2018-10-05T12:37:39.701Z,100677.97
2018-10-05T12:40:08.271Z,100666.14
2018-10-05T12:42:36.475Z,100659.91
2018-10-05T12:45:04.641Z,100659.36
2018-10-05T12:47:32.756Z,100663.48
2018-10-05T12:50:00.947Z,100657.71
2018-10-05T12:52:29.123Z,100648.08
2018-10-05T12:54:57.313Z,100647.25
2018-10-05T12:57:25.482Z,100643.59
2018-10-05T12:59:53.632Z,100643.93
2018-10-05T13:02:21.927Z,100641.70
2018-10-05T13:04:50.135Z,100638.06
2018-10-05T13:07:18.282Z,100637.80
2018-10-05T13:09:46.424Z,100629.02
2018-10-05T13:12:14.566Z,100630.33
2018-10-05T13:14:42.722Z,100620.72
2018-10-05T13:17:10.852Z,100611.84
2018-10-05T13:19:39.048Z,100614.20
2018-10-05T13:22:07.169Z,100612.14
2018-10-05T13:24:35.293Z,100606.86
2018-10-05T13:27:03.412Z,100606.45
2018-10-05T13:29:31.520Z,100601.22
2018-10-05T13:31:59.652Z,100601.61
2018-10-05T13:34:27.803Z,100599.26
2018-10-05T13:36:56.014Z,100596.66
2018-10-05T13:39:24.133Z,100590.03
2018-10-05T13:41:52.316Z,100586.59
2018-10-05T13:44:20.351Z,100585.91
2018-10-05T13:46:48.518Z,100580.86
2018-10-05T13:49:16.630Z,100581.42
2018-10-05T13:51:44.770Z,100580.97
2018-10-05T13:56:47.421Z,100567.02
2018-10-05T13:59:15.542Z,100560.88
2018-10-05T14:01:43.712Z,100544.23
2018-10-05T14:04:11.826Z,100554.17
2018-10-05T14:06:39.964Z,100550.22
2018-10-05T14:09:09.573Z,100550.58
2018-10-05T14:11:37.899Z,100550.77
2018-10-05T14:14:06.445Z,100540.75
2018-10-05T14:16:34.741Z,100544.20
2018-10-05T14:19:02.878Z,100533.93
2018-10-05T14:21:31.050Z,100534.04
2018-10-05T14:24:05.309Z,100532.88
2018-10-05T14:26:33.601Z,100524.00
2018-10-05T14:29:02.712Z,100522.59
2018-10-05T14:31:30.837Z,100514.94
2018-10-05T14:33:59.068Z,100510.92
2018-10-05T14:36:27.198Z,100503.10
2018-10-05T14:38:55.320Z,100503.95
2018-10-05T14:41:23.473Z,100498.34
2018-10-05T14:43:55.487Z,100498.73
2018-10-05T14:46:28.146Z,100494.33
2018-10-05T14:48:57.997Z,100482.34
2018-10-05T14:51:27.626Z,100481.39
2018-10-05T14:53:58.477Z,100477.42
2018-10-05T14:59:31.199Z,100474.23
2018-10-05T15:02:04.307Z,100475.28
2018-10-05T15:04:34.096Z,100463.00
2018-10-05T15:07:02.246Z,100465.15
2018-10-05T15:09:31.915Z,100458.13
2018-10-05T15:14:49.017Z,100457.64
2018-10-05T15:17:20.139Z,100451.23
2018-10-05T15:19:57.630Z,100455.69
2018-10-05T15:22:25.873Z,100452.02
2018-10-05T15:24:56.048Z,100450.52
2018-10-05T15:30:16.711Z,100445.31
2018-10-05T15:32:45.242Z,100439.59
2018-10-05T15:35:18.093Z,100443.44
2018-10-05T15:37:46.684Z,100436.04
2018-10-05T15:40:19.833Z,100432.88
2018-10-05T15:42:48.290Z,100429.77
2018-10-05T15:45:18.176Z,100426.96
2018-10-05T15:47:46.814Z,100419.15
2018-10-05T15:50:16.520Z,100424.95
2018-10-05T15:52:44.768Z,100421.95
2018-10-05T15:55:13.072Z,100425.41
2018-10-05T15:57:41.283Z,100424.86
2018-10-05T16:00:09.748Z,100416.58
2018-10-05T16:02:38.215Z,100422.99
2018-10-05T16:05:06.685Z,100416.63
2018-10-05T16:07:34.887Z,100417.73
2018-10-05T16:10:03.135Z,100422.39
2018-10-05T16:12:31.475Z,100414.27
2018-10-05T16:14:59.591Z,100407.55
2018-10-05T16:17:27.721Z,100404.80
2018-10-05T16:19:55.869Z,100413.70
2018-10-05T16:22:24.105Z,100413.75
2018-10-05T16:24:52.356Z,100409.03
2018-10-05T16:27:20.596Z,100413.52
2018-10-05T16:29:48.859Z,100404.98
2018-10-05T16:32:17.017Z,100408.64
2018-10-05T16:34:45.293Z,100405.88
2018-10-05T16:37:13.462Z,100406.52
2018-10-05T16:39:41.819Z,100405.00
2018-10-05T16:42:10.292Z,100398.08
2018-10-05T16:44:38.593Z,100399.39
2018-10-05T16:47:06.789Z,100399.44
2018-10-05T16:49:34.962Z,100400.52
2018-10-05T16:52:03.174Z,100398.22
2018-10-05T16:54:31.382Z,100396.73
2018-10-05T16:56:59.674Z,100395.03
2018-10-05T16:59:27.823Z,100396.50
2018-10-05T17:01:56.106Z,100391.83
2018-10-05T17:04:24.351Z,100385.36
2018-10-05T17:06:52.533Z,100385.05
2018-10-05T17:09:20.677Z,100389.73
2018-10-05T17:11:48.922Z,100396.36
2018-10-05T17:14:17.165Z,100385.67
2018-10-05T17:16:45.408Z,100391.34
2018-10-05T17:19:13.574Z,100386.88
2018-10-05T17:21:41.787Z,100391.16
2018-10-05T17:24:10.027Z,100388.47
2018-10-05T17:26:38.249Z,100394.16
2018-10-05T17:29:06.453Z,100396.78
2018-10-05T17:31:34.591Z,100393.66
2018-10-05T17:34:02.724Z,100391.70
2018-10-05T17:36:31.113Z,100392.36
2018-10-05T17:38:59.273Z,100393.60
2018-10-05T17:41:27.417Z,100388.46
2018-10-05T17:43:55.637Z,100385.93
2018-10-05T17:46:23.744Z,100390.13
2018-10-05T17:48:51.947Z,100383.97
2018-10-05T17:51:20.171Z,100384.77
2018-10-05T17:53:48.323Z,100386.37
2018-10-05T17:56:16.457Z,100388.17
2018-10-05T17:58:44.665Z,100386.80
2018-10-05T18:01:12.916Z,100382.61
2018-10-05T18:03:41.086Z,100381.21
2018-10-05T18:06:09.278Z,100381.44
2018-10-05T18:08:37.545Z,100382.23
2018-10-05T18:11:05.772Z,100379.82
2018-10-05T18:13:33.959Z,100382.61
2018-10-05T18:16:02.325Z,100379.82
2018-10-05T18:18:30.465Z,100381.22
2018-10-05T18:20:58.704Z,100381.42
2018-10-05T18:23:26.974Z,100382.61
2018-10-05T18:25:55.172Z,100387.21
2018-10-05T18:28:23.381Z,100382.61
2018-10-05T18:30:51.636Z,100386.61
2018-10-05T18:33:19.863Z,100384.00
2018-10-05T18:35:49.033Z,100380.41
2018-10-05T18:38:17.180Z,100377.64
2018-10-05T18:40:45.318Z,100376.45
2018-10-05T18:43:13.478Z,100375.86
2018-10-05T18:45:41.686Z,100365.90
2018-10-05T18:48:09.820Z,100364.69
2018-10-05T18:50:37.989Z,100365.11
2018-10-05T18:53:06.125Z,100367.89
2018-10-05T18:55:34.275Z,100358.14
2018-10-05T18:58:02.442Z,100356.92
2018-10-05T19:00:30.706Z,100354.55
2018-10-05T19:02:58.905Z,100357.33
2018-10-05T19:05:27.063Z,100355.16
2018-10-05T19:07:55.217Z,100331.27
2018-10-05T19:10:23.397Z,100347.97
2018-10-05T19:12:51.557Z,100347.38
2018-10-05T19:15:19.770Z,100342.42
2018-10-05T19:17:47.909Z,100345.20
2018-10-05T19:20:16.580Z,100343.58
2018-10-05T19:22:44.809Z,100342.55
2018-10-05T19:25:13.108Z,100343.76
2018-10-05T19:27:41.324Z,100334.22
2018-10-05T19:30:09.764Z,100336.20
2018-10-05T19:32:37.921Z,100330.43
2018-10-05T19:35:06.085Z,100331.23
2018-10-05T19:37:34.263Z,100327.25
2018-10-05T19:40:02.420Z,100315.89
2018-10-05T19:42:30.536Z,100324.45
2018-10-05T19:44:58.734Z,100317.30
2018-10-05T19:47:26.888Z,100320.86
2018-10-05T19:49:55.044Z,100324.23
2018-10-05T19:52:23.229Z,100320.84
2018-10-05T19:54:51.456Z,100325.59
2018-10-05T19:57:19.625Z,100324.01
2018-10-05T19:59:47.811Z,100324.99
2018-10-05T20:02:15.949Z,100325.17
2018-10-05T20:04:44.139Z,100318.79
2018-10-05T20:07:12.328Z,100319.58
2018-10-05T20:09:40.491Z,100320.18
2018-10-05T20:12:08.640Z,100321.97
2018-10-05T20:14:36.857Z,100319.58
2018-10-05T20:17:05.119Z,100314.80
2018-10-05T20:19:33.804Z,100310.02
2018-10-05T20:22:02.078Z,100305.45
2018-10-05T20:24:30.376Z,100298.67
2018-10-05T20:26:58.529Z,100303.84
2018-10-05T20:29:26.665Z,100302.45
2018-10-05T20:31:54.820Z,100302.02
2018-10-05T20:34:22.988Z,100296.45
2018-10-05T20:36:51.322Z,100302.76
2018-10-05T20:39:19.510Z,100298.55
2018-10-05T20:41:47.773Z,100297.11
2018-10-05T20:44:15.947Z,100291.32
2018-10-05T20:46:44.334Z,100283.93
2018-10-05T20:49:12.652Z,100286.88
2018-10-05T20:51:40.827Z,100285.48
2018-10-05T20:54:08.975Z,100284.28
2018-10-05T20:56:37.166Z,100288.42
2018-10-05T20:59:05.269Z,100283.03
2018-10-05T21:01:33.424Z,100280.02
2018-10-05T21:04:01.617Z,100285.14
2018-10-05T21:06:29.791Z,100281.94
2018-10-05T21:08:57.921Z,100279.12
2018-10-05T21:11:26.209Z,100275.92
2018-10-05T21:13:54.332Z,100280.42
2018-10-05T21:16:22.506Z,100281.78
2018-10-05T21:18:50.718Z,100275.17
2018-10-05T21:21:18.975Z,100280.55
2018-10-05T21:23:47.152Z,100274.95
2018-10-05T21:26:15.402Z,100277.30
2018-10-05T21:28:43.576Z,100279.82
2018-10-05T21:31:11.734Z,100276.27
2018-10-05T21:33:39.905Z,100278.58
2018-10-05T21:36:08.083Z,100267.08
2018-10-05T21:38:36.382Z,100269.23
2018-10-05T21:41:04.614Z,100269.23
2018-10-05T21:43:32.823Z,100263.97
2018-10-05T21:46:01.045Z,100262.46
2018-10-05T21:48:29.477Z,100257.16
2018-10-05T21:50:57.670Z,100262.00
2018-10-05T21:53:25.844Z,100258.82
2018-10-05T21:55:53.967Z,100262.19
2018-10-05T21:58:22.108Z,100262.06
2018-10-05T22:00:50.315Z,100259.55
2018-10-05T22:03:18.493Z,100256.23
2018-10-05T22:05:46.660Z,100254.32
2018-10-05T22:08:14.975Z,100250.08
2018-10-05T22:10:44.318Z,100260.09
2018-10-05T22:13:13.409Z,100255.08
2018-10-05T22:18:26.581Z,100252.44
2018-10-05T22:20:54.717Z,100247.78
2018-10-05T22:23:22.864Z,100246.28
2018-10-05T22:25:51.063Z,100249.36
2018-10-05T22:28:19.376Z,100248.59
2018-10-05T22:30:47.614Z,100247.89
2018-10-05T22:33:15.875Z,100229.44
2018-10-05T22:35:43.998Z,100243.38
2018-10-05T22:38:12.307Z,100238.55
2018-10-05T22:40:40.517Z,100234.90
2018-10-05T22:43:08.670Z,100232.71
2018-10-05T22:45:36.808Z,100228.88
2018-10-05T22:48:05.002Z,100230.84
2018-10-05T22:50:33.156Z,100228.03
2018-10-05T22:53:01.283Z,100223.64
2018-10-05T22:55:31.091Z,100225.75
2018-10-05T22:57:59.266Z,100226.02
2018-10-05T23:00:27.484Z,100224.69
2018-10-05T23:02:55.828Z,100222.15
2018-10-05T23:05:23.953Z,100230.33
2018-10-05T23:07:52.194Z,100224.18
2018-10-05T23:10:20.506Z,100225.00
2018-10-05T23:12:48.618Z,100222.84
2018-10-05T23:15:16.755Z,100226.25
2018-10-05T23:17:44.883Z,100214.97
2018-10-05T23:20:13.069Z,100211.22
2018-10-05T23:22:41.212Z,100207.45
2018-10-05T23:25:09.318Z,100210.44
2018-10-05T23:27:37.433Z,100207.88
2018-10-05T23:30:05.705Z,100201.88
2018-10-05T23:32:33.841Z,100200.09
2018-10-05T23:35:01.966Z,100200.69
2018-10-05T23:37:30.092Z,100196.92
2018-10-05T23:39:58.192Z,100195.53
2018-10-05T23:42:26.494Z,100195.72
2018-10-05T23:44:54.602Z,100199.09
2018-10-05T23:47:22.761Z,100198.88
2018-10-05T23:49:50.881Z,100196.88
2018-10-05T23:52:29.058Z,100192.50
2018-10-05T23:54:57.180Z,100189.13
2018-10-05T23:57:25.310Z,100187.94
2018-10-05T23:59:53.412Z,100195.29
